Princess Juliana International, Saint Maartin

3:47 PM AST on August 29, 2015 (GMT -0400)
Princess Juliana International | | Change Station
CLOSE
Current Station
Airport
Location: Juliana Airport,
Elevation: 13 ft
Nearby Weather Stations

Elev 13 ft 18.04 °N, 63.11 °W | Updated 47 minutes ago

Scattered Clouds
Scattered Clouds
88 °F
Feels Like 98 °F
N
17
Wind Variable Wind from ENE

Today
High -- | Low -- °F
--% Chance of Precip.
Yesterday
High -- | Low -- °F
Precip. -- in
5:57 AM 6:29 PM
Full, 100% visible
Pressure 29.98 in
Visibility 6.2 miles
Clouds Scattered Clouds 1900 ft
Heat Index 98 °F
Dew Point 75 °F
Humidity 66%
Rainfall 0.00 in
Snow Depth Not available.
UV 8 out of 12
Pollen Not available.
Air Quality Not available.
Flu Activity Not available.
METAR TNCM 291900Z 07015KT 9999 SCT019TCU 31/24 Q1015 A2998 NOSIG
Pressure 29.98 in
Visibility 6.2 miles
Clouds Scattered Clouds 1900 ft
Heat Index 98 °F
Dew Point 75 °F
Humidity 66%
Rainfall 0.00 in
Snow Depth Not available.
UV 8 out of 12
Pollen Not available.
Air Quality Not available.
Flu Activity Not available.
METAR TNCM 291900Z 07015KT 9999 SCT019TCU 31/24 Q1015 A2998 NOSIG

10-Day Weather Forecast

×

Almanac

Astronomy

Aug. 29, 2015 Rise Set
Actual Time
Civil Twilight
Nautical Twilight
Astronomical Twilight
Moon
Length of Visible Light
Length of Day
Tomorrow will be .
, % of the Moon is Illuminated

Today's Extremes

Country Highs Country Lows

Community

WunderPhotos

Upload Photos

1,850,786 photos uploaded!

WunderBlogs® & News

Nearby

Air Quality

  Air Quality AQ Index Pollutant
Not available.

Snow Depth

Station Depth Elevation

Earthquake Activity

City Distance Mag. Time & Date
Minimum magnitude displayed is 2.5.

Coastal Water Temperatures

Place Temperature

Stations

Nearby Weather Stations

Station Location Temp. Windchill Dew Point Humidity Wind Precip. Elev Updated Type